Time;durP1;ratioP1;P1;durP2;ratioP2;P2;SDS_P1;SDS_P2;PMS_P1;PMS_P2;Temp;Humidity;BMP_temperature;BMP_pressure;BME280_temperature;BME280_humidity;BME280_pressure;Samples;Min_cycle;Max_cycle;Signal;HPM_P1;HPM_P2
2022/06/17 00:00:30;;;;;;;52.25;41.17;;;;;;;15.01;100.00;99299.97;2091010;28;20191;-73
2022/06/17 00:01:32;;;;;;;60.37;41.07;;;;;;;14.98;100.00;99298.72;2091388;28;20194;-72
2022/06/17 00:02:34;;;;;;;48.22;40.10;;;;;;;14.98;100.00;99300.63;2091084;28;20230;-73
2022/06/17 00:03:36;;;;;;;49.58;40.47;;;;;;;15.02;100.00;99295.38;2082077;28;20196;-72
2022/06/17 00:04:37;;;;;;;55.05;42.08;;;;;;;15.01;100.00;99297.28;2074136;28;20235;-72
2022/06/17 00:05:39;;;;;;;49.97;40.60;;;;;;;15.00;100.00;99295.69;2082289;28;20187;-73
2022/06/17 00:06:43;;;;;;;47.60;39.42;;;;;;;14.99;100.00;99299.50;2090683;28;20784;-73
2022/06/17 00:07:44;;;;;;;51.50;40.40;;;;;;;14.99;100.00;99302.19;2090970;28;20223;-73
2022/06/17 00:08:49;;;;;;;48.57;40.33;;;;;;;15.01;100.00;99299.19;2082105;28;20200;-72
2022/06/17 00:09:53;;;;;;;47.70;39.63;;;;;;;14.98;100.00;99300.63;2082684;28;20310;-73
2022/06/17 00:10:57;;;;;;;53.72;40.92;;;;;;;14.96;100.00;99292.09;2090944;28;20195;-72
2022/06/17 00:11:58;;;;;;;52.38;40.67;;;;;;;14.95;100.00;99290.50;2091072;28;20218;-72
2022/06/17 00:12:59;;;;;;;51.17;40.88;;;;;;;14.99;100.00;99291.44;2090933;28;20774;-73
2022/06/17 00:14:03;;;;;;;47.40;39.70;;;;;;;14.92;100.00;99299.19;2090974;28;20588;-73
2022/06/17 00:15:13;;;;;;;53.55;40.38;;;;;;;14.92;100.00;99296.50;2090872;28;20437;-73
2022/06/17 00:16:18;;;;;;;52.35;40.83;;;;;;;14.91;100.00;99290.34;2082053;28;20184;-73
2022/06/17 00:17:22;;;;;;;49.75;40.35;;;;;;;14.89;100.00;99276.44;2075018;28;20554;-72
2022/06/17 00:18:25;;;;;;;49.67;40.67;;;;;;;14.89;100.00;99286.41;2082285;28;20218;-72
2022/06/17 00:19:28;;;;;;;52.40;41.08;;;;;;;14.84;100.00;99279.28;2090875;28;20202;-73
2022/06/17 00:20:33;;;;;;;52.78;41.92;;;;;;;14.86;100.00;99290.53;2090993;28;20183;-73
2022/06/17 00:21:37;;;;;;;51.05;40.88;;;;;;;14.82;100.00;99286.09;2090699;28;20242;-72
2022/06/17 00:22:40;;;;;;;55.70;39.78;;;;;;;14.83;100.00;99276.91;2090827;28;20183;-72
2022/06/17 00:23:41;;;;;;;48.30;40.30;;;;;;;14.82;100.00;99273.44;2082023;28;20234;-73
2022/06/17 00:24:44;;;;;;;48.23;39.63;;;;;;;14.78;100.00;99280.56;2080443;28;20211;-73
2022/06/17 00:25:47;;;;;;;50.22;41.13;;;;;;;14.76;100.00;99277.41;2090944;28;20217;-73
2022/06/17 00:26:49;;;;;;;55.13;39.28;;;;;;;14.76;100.00;99273.94;2081203;28;20196;-73
2022/06/17 00:27:52;;;;;;;44.50;38.85;;;;;;;14.77;100.00;99273.63;2073975;28;20295;-73
2022/06/17 00:28:54;;;;;;;54.35;40.33;;;;;;;14.72;100.00;99275.69;2074019;28;20210;-73
2022/06/17 00:29:55;;;;;;;47.35;40.20;;;;;;;14.70;100.00;99279.47;2081946;28;20283;-73
2022/06/17 00:30:56;;;;;;;51.97;39.97;;;;;;;14.75;100.00;99277.72;2081904;28;20199;-73
2022/06/17 00:31:57;;;;;;;48.85;41.78;;;;;;;14.73;100.00;99283.41;2081841;28;20247;-73
2022/06/17 00:33:01;;;;;;;52.13;42.45;;;;;;;14.75;100.00;99283.09;2073713;28;20200;-72
2022/06/17 00:34:05;;;;;;;55.35;43.92;;;;;;;14.74;100.00;99274.25;2082261;28;20194;-73
2022/06/17 00:35:08;;;;;;;53.30;41.72;;;;;;;14.72;100.00;99278.38;2081765;28;20192;-72
2022/06/17 00:36:12;;;;;;;50.67;42.22;;;;;;;14.72;100.00;99281.06;2081649;28;20210;-73
2022/06/17 00:37:14;;;;;;;49.40;41.42;;;;;;;14.59;100.00;99267.47;2081531;28;20203;-72
2022/06/17 00:38:18;;;;;;;55.72;43.00;;;;;;;14.63;100.00;99273.78;2081756;28;20747;-73
2022/06/17 00:39:23;;;;;;;46.10;41.13;;;;;;;14.64;100.00;99274.56;2081830;28;20234;-72
2022/06/17 00:40:31;;;;;;;52.20;41.83;;;;;;;14.62;100.00;99272.22;2073858;28;20208;-73
2022/06/17 00:41:34;;;;;;;52.53;43.83;;;;;;;14.59;100.00;99277.41;2082922;28;20646;-73
2022/06/17 00:42:36;;;;;;;57.67;42.80;;;;;;;14.56;100.00;99268.09;2090694;28;20182;-72
2022/06/17 00:43:40;;;;;;;48.10;42.00;;;;;;;14.52;100.00;99266.38;2090879;28;20672;-72
2022/06/17 00:44:49;;;;;;;47.60;41.70;;;;;;;14.48;100.00;99271.59;2081430;28;20203;-73
2022/06/17 00:45:53;;;;;;;52.05;41.78;;;;;;;14.49;100.00;99262.41;2082805;28;20216;-73
2022/06/17 00:47:00;;;;;;;51.53;41.78;;;;;;;14.46;100.00;99273.00;2090885;28;20183;-72
2022/06/17 00:48:04;;;;;;;57.03;42.88;;;;;;;14.48;100.00;99266.22;2090912;28;20681;-72
2022/06/17 00:49:12;;;;;;;56.58;43.03;;;;;;;14.46;100.00;99270.31;2090628;28;20618;-72
2022/06/17 00:50:16;;;;;;;55.03;43.13;;;;;;;14.45;100.00;99266.84;2081689;28;20211;-73
2022/06/17 00:51:21;;;;;;;55.05;42.80;;;;;;;14.46;100.00;99273.00;2081886;28;20223;-72
2022/06/17 00:52:24;;;;;;;50.25;43.33;;;;;;;14.45;100.00;99272.22;2081741;28;20195;-73
2022/06/17 00:53:28;;;;;;;51.08;42.90;;;;;;;14.47;100.00;99270.00;2073676;28;20577;-72
2022/06/17 00:54:34;;;;;;;56.42;43.13;;;;;;;14.48;100.00;99274.25;2073947;28;20307;-73
2022/06/17 00:55:42;;;;;;;50.60;42.75;;;;;;;14.48;100.00;99273.47;2074218;28;20188;-72
2022/06/17 00:56:43;;;;;;;52.83;41.78;;;;;;;14.46;100.00;99273.00;2082817;28;20215;-72
2022/06/17 00:57:46;;;;;;;48.75;42.15;;;;;;;14.47;100.00;99272.69;2081695;28;20203;-72
2022/06/17 00:59:00;;;;;;;50.05;41.85;;;;;;;14.48;100.00;99279.63;2081852;28;20187;-73
2022/06/17 01:00:12;;;;;;;54.60;42.70;;;;;;;14.42;100.00;99283.53;2081733;28;20226;-73
2022/06/17 01:01:16;;;;;;;49.95;42.47;;;;;;;14.43;100.00;99271.72;2075087;28;20196;-72
2022/06/17 01:02:18;;;;;;;51.63;42.65;;;;;;;14.42;100.00;99279.00;2073857;28;20200;-73
2022/06/17 01:03:23;;;;;;;55.87;42.77;;;;;;;14.47;100.00;99285.31;2073603;28;20754;-73
2022/06/17 01:04:29;;;;;;;52.08;41.72;;;;;;;14.49;100.00;99286.56;2082162;28;20453;-73
2022/06/17 01:05:33;;;;;;;53.40;43.55;;;;;;;14.53;100.00;99284.84;2081703;28;20515;-73
2022/06/17 01:06:37;;;;;;;53.35;43.05;;;;;;;14.53;100.00;99276.00;2081339;28;20235;-73
2022/06/17 01:07:40;;;;;;;51.38;42.45;;;;;;;14.50;100.00;99284.69;2073994;28;20233;-72
2022/06/17 01:10:11;;;;;;;53.38;43.30;;;;;;;14.54;100.00;99285.66;2076234;28;20223;-73
2022/06/17 01:11:13;;;;;;;56.60;44.60;;;;;;;14.53;100.00;99276.81;2074777;28;20197;-73
2022/06/17 01:12:16;;;;;;;53.03;43.83;;;;;;;14.51;100.00;99287.06;2073552;28;20195;-73
2022/06/17 01:13:17;;;;;;;54.10;43.58;;;;;;;14.50;100.00;99290.84;2073634;28;20219;-73
2022/06/17 01:14:21;;;;;;;55.50;43.10;;;;;;;14.48;100.00;99293.06;2073419;28;20200;-73
2022/06/17 01:15:23;;;;;;;50.47;43.25;;;;;;;14.50;100.00;99292.72;2073762;28;20244;-72
2022/06/17 01:16:31;;;;;;;49.38;42.88;;;;;;;14.45;100.00;99299.06;2074264;28;20617;-72
2022/06/17 01:17:40;;;;;;;52.70;42.38;;;;;;;14.47;100.00;99291.47;2074773;28;20192;-73
2022/06/17 01:18:46;;;;;;;54.22;43.15;;;;;;;14.44;100.00;99297.47;2073814;28;20830;-72
2022/06/17 01:19:51;;;;;;;57.97;44.10;;;;;;;14.48;100.00;99293.06;2082095;28;20572;-73
2022/06/17 01:21:02;;;;;;;55.63;43.75;;;;;;;14.47;100.00;99299.53;2081038;28;20188;-72
2022/06/17 01:22:13;;;;;;;54.22;42.78;;;;;;;14.47;100.00;99293.38;2073730;28;20663;-73
2022/06/17 01:23:18;;;;;;;53.80;43.97;;;;;;;14.47;100.00;99301.44;2074751;28;20192;-72
2022/06/17 01:24:20;;;;;;;51.50;42.78;;;;;;;14.47;100.00;99301.44;2081585;28;20243;-73
2022/06/17 01:25:26;;;;;;;60.78;43.95;;;;;;;14.48;100.00;99300.31;2073154;28;20318;-73
2022/06/17 01:26:27;;;;;;;56.22;44.58;;;;;;;14.48;100.00;99306.47;2074044;28;20196;-73
2022/06/17 01:27:33;;;;;;;55.83;43.67;;;;;;;14.48;100.00;99301.13;2073335;28;20211;-73
2022/06/17 01:28:33;;;;;;;53.45;44.00;;;;;;;14.47;100.00;99306.81;2073952;28;20220;-72
2022/06/17 01:29:35;;;;;;;63.13;44.27;;;;;;;14.46;100.00;99311.38;2073329;28;20208;-72
2022/06/17 01:30:40;;;;;;;60.60;44.15;;;;;;;14.46;100.00;99315.97;2081643;28;20701;-73
2022/06/17 01:31:45;;;;;;;58.22;44.33;;;;;;;14.45;100.00;99312.50;2090492;28;20274;-73
2022/06/17 01:32:49;;;;;;;61.42;45.63;;;;;;;14.42;100.00;99310.38;2090407;28;20274;-72
2022/06/17 01:33:51;;;;;;;57.42;43.60;;;;;;;14.42;100.00;99311.19;2081377;28;20282;-73
2022/06/17 01:34:52;;;;;;;65.28;43.78;;;;;;;14.44;100.00;99321.63;2081670;28;20545;-73
2022/06/17 01:35:56;;;;;;;60.67;45.33;;;;;;;14.43;100.00;99322.72;2080932;28;20257;-72
2022/06/17 01:36:58;;;;;;;62.47;45.40;;;;;;;14.44;100.00;99321.63;2073796;28;20562;-72
2022/06/17 01:38:00;;;;;;;67.80;45.30;;;;;;;14.44;100.00;99324.31;2073373;28;20196;-72
2022/06/17 01:39:04;;;;;;;63.45;45.03;;;;;;;14.42;100.00;99323.81;2081494;28;20286;-73
2022/06/17 01:40:07;;;;;;;68.10;45.95;;;;;;;14.41;100.00;99317.66;2081734;28;20202;-73
2022/06/17 01:41:08;;;;;;;64.78;45.70;;;;;;;14.42;100.00;99329.19;2090334;28;20278;-73
2022/06/17 01:42:10;;;;;;;63.40;45.90;;;;;;;14.40;100.00;99320.66;2090431;28;20190;-72
2022/06/17 01:43:13;;;;;;;63.85;45.70;;;;;;;14.42;100.00;99334.53;2090335;28;20214;-73
2022/06/17 01:44:20;;;;;;;67.25;46.42;;;;;;;14.38;100.00;99326.34;2090429;28;20191;-73
2022/06/17 01:45:21;;;;;;;62.92;45.50;;;;;;;14.43;100.00;99328.09;2081471;28;20192;-73
2022/06/17 01:46:27;;;;;;;66.37;45.80;;;;;;;14.46;100.00;99332.84;2081528;28;20222;-72
2022/06/17 01:47:29;;;;;;;69.32;46.28;;;;;;;14.45;100.00;99328.59;2081494;28;20548;-73
2022/06/17 01:48:34;;;;;;;63.35;46.03;;;;;;;14.48;100.00;99327.97;2073344;28;20617;-73
2022/06/17 01:49:37;;;;;;;64.70;47.40;;;;;;;14.49;100.00;99332.22;2074617;28;20315;-73
2022/06/17 01:50:43;;;;;;;64.10;46.80;;;;;;;14.50;100.00;99335.69;2075344;28;20216;-73
2022/06/17 01:51:49;;;;;;;68.57;47.00;;;;;;;14.50;100.00;99327.63;2082945;28;20306;-72
2022/06/17 01:52:57;;;;;;;66.22;46.35;;;;;;;14.47;100.00;99326.38;2082868;28;20591;-73
2022/06/17 01:54:05;;;;;;;68.15;47.15;;;;;;;14.47;100.00;99331.75;2075897;28;20678;-73
2022/06/17 01:55:09;;;;;;;59.22;45.40;;;;;;;14.46;100.00;99327.50;2083062;28;20265;-73
2022/06/17 01:56:12;;;;;;;61.80;46.20;;;;;;;14.47;100.00;99333.66;2083064;28;20199;-72
2022/06/17 01:57:19;;;;;;;66.05;48.17;;;;;;;14.44;100.00;99337.72;2075230;28;20203;-73
2022/06/17 01:58:24;;;;;;;65.10;46.28;;;;;;;14.45;100.00;99341.22;2083043;28;20218;-73
2022/06/17 01:59:29;;;;;;;67.07;45.80;;;;;;;14.47;100.00;99339.03;2083547;28;20286;-73
2022/06/17 02:00:32;;;;;;;62.42;45.15;;;;;;;14.48;100.00;99338.69;2083100;28;20218;-72
2022/06/17 02:01:37;;;;;;;62.47;46.80;;;;;;;14.44;100.00;99335.03;2075253;28;20275;-73
2022/06/17 02:02:40;;;;;;;64.85;45.85;;;;;;;14.42;100.00;99340.72;2075081;28;20578;-73
2022/06/17 02:03:44;;;;;;;59.65;46.17;;;;;;;14.39;100.00;99341.34;2083304;28;20195;-73
2022/06/17 02:04:49;;;;;;;63.40;45.13;;;;;;;14.48;100.00;99346.75;2083034;28;20246;-73
2022/06/17 02:05:57;;;;;;;66.25;45.63;;;;;;;14.49;100.00;99347.53;2075221;28;20188;-72
2022/06/17 02:07:03;;;;;;;60.05;44.47;;;;;;;14.45;100.00;99347.38;2083587;28;20256;-73
2022/06/17 02:08:06;;;;;;;64.35;45.60;;;;;;;14.48;100.00;99341.38;2083751;28;20668;-73
2022/06/17 02:09:08;;;;;;;60.30;44.65;;;;;;;14.48;100.00;99351.34;2091581;28;20196;-72
2022/06/17 02:10:12;;;;;;;59.78;44.63;;;;;;;14.48;100.00;99340.59;2091139;28;20191;-73
2022/06/17 02:11:14;;;;;;;64.88;45.70;;;;;;;14.49;100.00;99347.53;2091360;28;20199;-72
2022/06/17 02:12:21;;;;;;;66.43;46.25;;;;;;;14.50;100.00;99349.91;2091347;28;20304;-72
2022/06/17 02:13:30;;;;;;;66.53;44.38;;;;;;;14.51;100.00;99351.50;2092732;28;20217;-72
2022/06/17 02:14:58;;;;;;;56.75;43.88;;;;;;;14.50;100.00;99349.13;2076574;28;20208;-73
2022/06/17 02:16:20;;;;;;;67.03;45.67;;;;;;;14.52;100.00;99353.09;2100307;28;20250;-72
2022/06/17 02:17:39;;;;;;;58.92;44.05;;;;;;;14.51;100.00;99354.19;2091209;28;20288;-73
2022/06/17 02:19:01;;;;;;;59.65;45.00;;;;;;;14.46;100.00;99348.19;2091291;28;20262;-73
2022/06/17 02:20:07;;;;;;;62.90;45.60;;;;;;;14.45;100.00;99354.63;2091164;28;20203;-73
2022/06/17 02:21:12;;;;;;;58.72;45.97;;;;;;;14.42;100.00;99347.97;2083065;28;20685;-73
2022/06/17 02:22:19;;;;;;;57.22;45.70;;;;;;;14.41;100.00;99349.06;2092006;28;20155;-72
2022/06/17 02:23:22;;;;;;;61.13;45.90;;;;;;;14.41;100.00;99346.41;2091146;28;20190;-72
2022/06/17 02:24:29;;;;;;;62.90;46.72;;;;;;;14.39;100.00;99354.75;2083632;28;20200;-73
2022/06/17 02:25:35;;;;;;;57.50;44.63;;;;;;;14.41;100.00;99355.22;2091086;28;20204;-73
2022/06/17 02:26:41;;;;;;;57.35;46.33;;;;;;;14.39;100.00;99354.75;2083593;28;20606;-72
2022/06/17 02:27:43;;;;;;;59.17;46.00;;;;;;;14.40;100.00;99358.25;2091073;28;20329;-72
2022/06/17 02:28:47;;;;;;;57.67;46.78;;;;;;;14.40;100.00;99356.34;2091361;28;20218;-73
2022/06/17 02:29:48;;;;;;;64.32;47.53;;;;;;;14.43;100.00;99352.25;2090776;28;20664;-73
2022/06/17 02:30:50;;;;;;;60.20;46.40;;;;;;;14.44;100.00;99351.16;2091212;28;20564;-73
2022/06/17 02:31:51;;;;;;;57.72;46.70;;;;;;;14.45;100.00;99358.13;2091095;28;20237;-72
2022/06/17 02:32:54;;;;;;;54.43;45.33;;;;;;;14.41;100.00;99359.81;2091179;28;20187;-72
2022/06/17 02:33:56;;;;;;;62.55;47.53;;;;;;;14.37;100.00;99354.28;2100208;28;20476;-72
2022/06/17 02:35:01;;;;;;;57.67;46.63;;;;;;;14.39;100.00;99362.81;2091324;28;20217;-72
2022/06/17 02:36:07;;;;;;;60.03;48.33;;;;;;;14.41;100.00;99362.50;2082625;28;20250;-73
2022/06/17 02:37:11;;;;;;;61.08;49.15;;;;;;;14.39;100.00;99364.72;2091067;28;20191;-73
2022/06/17 02:38:16;;;;;;;56.67;45.85;;;;;;;14.41;100.00;99362.50;2091744;28;20292;-73
2022/06/17 02:39:18;;;;;;;60.92;46.70;;;;;;;14.43;100.00;99354.94;2091012;28;20278;-74
2022/06/17 02:40:28;;;;;;;59.50;47.75;;;;;;;14.45;100.00;99360.81;2090969;28;20195;-73
2022/06/17 02:41:31;;;;;;;59.00;46.90;;;;;;;14.45;100.00;99363.50;2090607;28;20191;-73
2022/06/17 02:42:35;;;;;;;57.65;46.50;;;;;;;14.44;100.00;99356.53;2082966;28;20199;-72
2022/06/17 02:43:40;;;;;;;66.40;48.67;;;;;;;14.43;100.00;99360.31;2090979;28;20217;-72
2022/06/17 02:44:41;;;;;;;68.82;47.55;;;;;;;14.43;100.00;99355.72;2083189;28;20299;-72
2022/06/17 02:45:45;;;;;;;60.00;46.78;;;;;;;14.41;100.00;99357.13;2099307;28;20216;-73
2022/06/17 02:46:47;;;;;;;59.20;47.63;;;;;;;14.38;100.00;99358.56;2098895;28;20684;-72
2022/06/17 02:47:49;;;;;;;60.65;47.30;;;;;;;14.40;100.00;99359.03;2082904;28;20195;-72
2022/06/17 02:48:55;;;;;;;57.67;46.75;;;;;;;14.41;100.00;99362.50;2091128;28;20525;-72
2022/06/17 02:49:57;;;;;;;55.88;46.92;;;;;;;14.47;100.00;99366.66;2099993;28;20503;-72
2022/06/17 02:51:00;;;;;;;61.20;47.53;;;;;;;14.46;100.00;99367.75;2090265;28;20222;-73
2022/06/17 02:52:06;;;;;;;58.22;48.03;;;;;;;14.44;100.00;99361.88;2082189;28;20207;-73
2022/06/17 02:53:08;;;;;;;59.35;47.03;;;;;;;14.44;100.00;99367.25;2082900;28;20211;-72
2022/06/17 02:54:12;;;;;;;61.60;47.22;;;;;;;14.45;100.00;99366.19;2082847;28;20195;-73
2022/06/17 02:55:18;;;;;;;60.10;46.42;;;;;;;14.43;100.00;99365.69;2082571;28;20661;-72
2022/06/17 02:56:24;;;;;;;62.25;46.95;;;;;;;14.42;100.00;99367.59;2091291;28;20176;-73
2022/06/17 02:57:28;;;;;;;60.72;47.28;;;;;;;14.43;100.00;99357.63;2091285;28;20638;-73
2022/06/17 02:58:42;;;;;;;57.47;47.03;;;;;;;14.44;100.00;99364.56;2082669;28;20199;-73
2022/06/17 02:59:50;;;;;;;62.72;46.92;;;;;;;14.42;100.00;99361.38;2090958;28;20241;-73
2022/06/17 03:00:53;;;;;;;63.80;47.95;;;;;;;14.42;100.00;99361.38;2089980;28;20188;-73
2022/06/17 03:01:57;;;;;;;64.55;47.35;;;;;;;14.42;100.00;99361.38;2082648;28;20615;-72
2022/06/17 03:03:16;;;;;;;64.43;48.97;;;;;;;14.41;100.00;99367.88;2084828;28;20191;-72
2022/06/17 03:04:19;;;;;;;68.95;48.03;;;;;;;14.43;100.00;99376.41;2090838;28;20183;-73
2022/06/17 03:05:23;;;;;;;65.25;48.85;;;;;;;14.41;100.00;99374.03;2082957;28;20689;-73
2022/06/17 03:06:29;;;;;;;65.05;49.45;;;;;;;14.41;100.00;99370.56;2082264;28;20227;-72
2022/06/17 03:07:32;;;;;;;64.40;48.17;;;;;;;14.40;100.00;99374.34;2082919;28;20192;-73
2022/06/17 03:08:58;;;;;;;62.78;48.35;;;;;;;14.41;100.00;99373.25;2086185;28;20603;-73
2022/06/17 03:10:01;;;;;;;67.55;48.88;;;;;;;14.44;100.00;99383.38;2082904;28;20191;-72
2022/06/17 03:11:01;;;;;;;71.60;48.83;;;;;;;14.45;100.00;99384.16;2082256;28;20667;-73
2022/06/17 03:12:08;;;;;;;66.07;48.80;;;;;;;14.46;100.00;99380.41;2090845;28;20179;-72
2022/06/17 03:13:12;;;;;;;64.65;47.85;;;;;;;14.48;100.00;99381.66;2090823;28;20270;-74
2022/06/17 03:14:14;;;;;;;72.10;51.83;;;;;;;14.47;100.00;99385.44;2082926;28;20200;-73
2022/06/17 03:15:17;;;;;;;66.95;51.05;;;;;;;14.48;100.00;99378.97;2082482;28;20258;-72
2022/06/17 03:16:21;;;;;;;67.93;49.70;;;;;;;14.50;100.00;99376.75;2090734;28;20195;-73
2022/06/17 03:17:23;;;;;;;67.70;50.97;;;;;;;14.49;100.00;99380.56;2082660;28;20269;-73
2022/06/17 03:18:27;;;;;;;67.28;50.85;;;;;;;14.52;100.00;99384.53;2082774;28;20195;-73
2022/06/17 03:19:29;;;;;;;75.95;52.30;;;;;;;14.52;100.00;99382.63;2082684;28;20697;-73
2022/06/17 03:20:34;;;;;;;79.35;52.25;;;;;;;14.59;100.00;99382.13;2082293;28;20670;-72
2022/06/17 03:21:35;;;;;;;75.68;54.22;;;;;;;14.60;100.00;99391.81;2090374;28;20226;-73
2022/06/17 03:22:37;;;;;;;70.47;52.47;;;;;;;14.58;100.00;99389.41;2090649;28;20748;-72
2022/06/17 03:23:44;;;;;;;73.70;52.15;;;;;;;14.65;100.00;99397.00;2090699;28;20218;-73
2022/06/17 03:24:51;;;;;;;78.47;53.67;;;;;;;14.69;100.00;99401.44;2083324;28;20198;-72
2022/06/17 03:25:56;;;;;;;75.03;53.63;;;;;;;14.70;100.00;99402.22;2090846;28;20229;-73
2022/06/17 03:27:04;;;;;;;72.03;53.40;;;;;;;14.72;100.00;99394.66;2090674;28;20179;-72
2022/06/17 03:28:10;;;;;;;69.90;52.97;;;;;;;14.74;100.00;99403.16;2083766;28;20298;-72
2022/06/17 03:29:17;;;;;;;77.28;53.97;;;;;;;14.74;100.00;99397.00;2083498;28;20725;-73
2022/06/17 03:30:21;;;;;;;72.40;52.15;;;;;;;14.76;100.00;99397.47;2082305;28;20199;-72
2022/06/17 03:31:28;;;;;;;74.72;51.90;;;;;;;14.75;100.00;99399.38;2090546;28;20226;-72
2022/06/17 03:32:33;;;;;;;77.05;53.25;;;;;;;14.81;100.00;99402.72;2089990;28;20211;-73
2022/06/17 03:33:38;;;;;;;74.57;52.00;;;;;;;14.89;100.00;99396.56;2082981;28;20200;-72
2022/06/17 03:34:44;;;;;;;73.22;52.95;;;;;;;14.88;100.00;99403.03;2090589;28;20195;-73
2022/06/17 03:35:47;;;;;;;73.85;55.35;;;;;;;14.89;100.00;99401.94;2090672;28;20690;-72
2022/06/17 03:36:54;;;;;;;77.82;55.15;;;;;;;14.87;100.00;99406.84;2082361;28;20223;-73
2022/06/17 03:37:58;;;;;;;74.85;57.17;;;;;;;14.88;100.00;99401.13;2083265;28;20192;-73
2022/06/17 03:39:03;;;;;;;77.55;56.95;;;;;;;14.94;100.00;99407.94;2090707;28;20202;-73
2022/06/17 03:40:06;;;;;;;83.00;57.58;;;;;;;14.99;100.00;99409.66;2082751;28;20191;-73
2022/06/17 03:41:18;;;;;;;90.22;60.40;;;;;;;14.97;100.00;99403.81;2090900;28;20190;-72
2022/06/17 03:42:21;;;;;;;96.97;62.20;;;;;;;15.02;100.00;99409.03;2083487;28;20195;-73
2022/06/17 03:43:31;;;;;;;79.50;59.13;;;;;;;15.00;100.00;99400.50;2090567;28;20750;-72
2022/06/17 03:44:39;;;;;;;95.90;62.58;;;;;;;15.02;100.00;99406.34;2090511;28;20213;-73
2022/06/17 03:45:43;;;;;;;95.07;62.72;;;;;;;15.07;100.00;99406.19;2089832;28;20206;-72
2022/06/17 03:46:48;;;;;;;90.85;62.38;;;;;;;15.11;100.00;99400.97;2089853;28;20249;-73
2022/06/17 03:47:54;;;;;;;93.88;61.85;;;;;;;15.16;100.00;99415.03;2090748;28;20256;-72
2022/06/17 03:49:03;;;;;;;96.05;62.47;;;;;;;15.16;100.00;99409.66;2090610;28;20706;-72
2022/06/17 03:50:08;;;;;;;94.18;62.20;;;;;;;15.17;100.00;99408.56;2090522;28;20187;-72
2022/06/17 03:51:15;;;;;;;95.68;61.38;;;;;;;15.26;100.00;99406.63;2089917;28;20642;-72
2022/06/17 03:52:23;;;;;;;96.65;65.47;;;;;;;15.31;100.00;99404.91;2082887;28;20204;-72
2022/06/17 03:53:29;;;;;;;103.88;65.35;;;;;;;15.28;100.00;99403.63;2083216;28;20314;-73
2022/06/17 03:54:31;;;;;;;99.90;64.65;;;;;;;15.24;100.00;99405.38;2082603;28;20263;-73
2022/06/17 03:55:34;;;;;;;102.13;65.47;;;;;;;15.24;100.00;99408.06;2082186;28;20234;-72
2022/06/17 03:56:36;;;;;;;95.82;64.78;;;;;;;15.24;100.00;99403.50;2090523;28;20275;-73
2022/06/17 03:57:38;;;;;;;100.32;66.40;;;;;;;15.22;100.00;99407.63;2090419;28;20692;-72
2022/06/17 03:58:41;;;;;;;108.55;68.18;;;;;;;15.24;100.00;99414.25;2082273;28;20199;-73
2022/06/17 03:59:46;;;;;;;109.05;68.18;;;;;;;15.19;100.00;99406.31;2090760;28;20241;-72
2022/06/17 04:00:49;;;;;;;106.38;66.45;;;;;;;15.17;100.00;99413.13;2082562;28;20199;-72
2022/06/17 04:01:55;;;;;;;104.40;68.30;;;;;;;15.18;100.00;99420.88;2090404;28;20206;-72
2022/06/17 04:03:06;;;;;;;103.93;68.00;;;;;;;15.21;100.00;99414.09;2082919;28;20195;-72
2022/06/17 04:04:13;;;;;;;104.55;66.70;;;;;;;15.22;100.00;99418.38;2083578;28;20199;-72
2022/06/17 04:05:16;;;;;;;111.50;67.55;;;;;;;15.23;100.00;99428.00;2090033;28;20195;-73
2022/06/17 04:06:18;;;;;;;111.00;68.18;;;;;;;15.23;100.00;99419.94;2081848;28;20227;-73
2022/06/17 04:07:22;;;;;;;106.68;69.90;;;;;;;15.26;100.00;99419.28;2090690;28;20210;-72
2022/06/17 04:08:23;;;;;;;104.05;68.20;;;;;;;15.24;100.00;99429.59;2082201;28;20195;-73
2022/06/17 04:09:28;;;;;;;110.20;69.53;;;;;;;15.24;100.00;99430.38;2090318;28;20195;-72
2022/06/17 04:10:31;;;;;;;111.53;68.88;;;;;;;15.30;100.00;99430.22;2082341;28;20314;-73
2022/06/17 04:11:37;;;;;;;114.95;69.32;;;;;;;15.34;100.00;99436.53;2082681;28;20698;-73
2022/06/17 04:12:40;;;;;;;108.50;71.03;;;;;;;15.39;100.00;99439.06;2090112;28;20626;-73
2022/06/17 04:14:01;;;;;;;111.88;71.70;;;;;;;15.36;100.00;99440.47;2084244;28;20187;-72
2022/06/17 04:15:09;;;;;;;112.57;71.40;;;;;;;15.38;100.00;99434.81;2090532;28;20224;-73
2022/06/17 04:16:20;;;;;;;111.63;70.63;;;;;;;15.42;100.00;99431.13;2090506;28;20670;-73
2022/06/17 04:17:27;;;;;;;117.32;72.72;;;;;;;15.48;100.00;99447.91;2082785;28;20184;-72
2022/06/17 04:18:32;;;;;;;115.82;71.13;;;;;;;15.49;100.00;99436.03;2090527;28;20182;-73
2022/06/17 04:19:38;;;;;;;120.13;72.22;;;;;;;15.56;100.00;99439.03;2082768;28;20203;-72
2022/06/17 04:20:41;;;;;;;117.80;74.07;;;;;;;15.62;100.00;99437.78;2082522;28;20233;-72
2022/06/17 04:21:44;;;;;;;110.72;72.45;;;;;;;15.69;100.00;99443.47;2082209;28;20247;-72
2022/06/17 04:22:48;;;;;;;107.75;71.80;;;;;;;15.73;100.00;99446.31;2082168;28;20568;-73
2022/06/17 04:23:55;;;;;;;111.40;69.75;;;;;;;15.78;100.00;99446.13;2090211;28;20187;-72
2022/06/17 04:25:30;;;;;;;106.00;71.20;;;;;;;15.93;100.00;99444.81;2090691;28;20198;-73
2022/06/17 04:26:35;;;;;;;100.40;68.82;;;;;;;15.98;100.00;99453.50;2090306;28;20337;-73
2022/06/17 04:27:56;;;;;;;101.93;70.55;;;;;;;16.05;100.00;99453.00;2090473;28;20195;-73
2022/06/17 04:29:02;;;;;;;105.28;70.60;;;;;;;15.98;100.00;99448.13;2083882;28;20219;-72
2022/06/17 04:30:09;;;;;;;100.05;69.35;;;;;;;16.05;100.00;99450.31;2082903;28;20243;-73
2022/06/17 04:31:15;;;;;;;103.75;71.07;;;;;;;16.11;100.00;99454.41;2090121;28;20215;-73
2022/06/17 04:32:21;;;;;;;101.50;69.28;;;;;;;16.11;100.00;99451.72;2090172;28;20260;-73
2022/06/17 04:33:28;;;;;;;99.07;67.22;;;;;;;16.17;100.00;99457.72;2082739;28;20203;-73
2022/06/17 04:34:29;;;;;;;100.63;69.63;;;;;;;16.13;100.00;99451.41;2082559;28;20207;-72
2022/06/17 04:35:31;;;;;;;98.87;68.70;;;;;;;16.18;100.00;99459.31;2090006;28;20203;-73
2022/06/17 04:36:35;;;;;;;100.93;68.07;;;;;;;16.19;100.00;99453.59;2081659;28;20226;-72
2022/06/17 04:37:40;;;;;;;99.80;68.13;;;;;;;16.23;100.00;99461.81;2082474;28;20201;-73
2022/06/17 04:39:27;;;;;;;93.80;64.07;;;;;;;16.13;100.00;99452.19;2085495;28;20426;-72
2022/06/17 04:40:47;;;;;;;83.80;60.38;;;;;;;16.06;100.00;99452.69;2090081;28;20198;-73
2022/06/17 04:41:58;;;;;;;81.50;60.45;;;;;;;16.06;100.00;99454.59;2083347;28;20203;-73
2022/06/17 04:43:05;;;;;;;84.95;59.72;;;;;;;16.09;100.00;99456.66;2090194;28;20183;-72
2022/06/17 04:44:13;;;;;;;84.78;62.03;;;;;;;16.09;100.00;99453.97;2082273;28;20196;-72
2022/06/17 04:45:18;;;;;;;79.32;60.30;;;;;;;16.07;100.00;99458.84;2090164;28;20661;-73
2022/06/17 04:46:25;;;;;;;88.72;59.85;;;;;;;16.00;100.00;99455.88;2090089;28;20194;-73
2022/06/17 04:47:28;;;;;;;76.50;58.73;;;;;;;15.97;100.00;99453.81;2090403;28;20195;-73
2022/06/17 04:48:32;;;;;;;84.15;59.70;;;;;;;16.00;100.00;99453.19;2089564;28;20437;-73
2022/06/17 04:49:36;;;;;;;83.90;59.67;;;;;;;15.99;100.00;99457.78;2081792;28;20204;-73
2022/06/17 04:50:39;;;;;;;72.60;57.53;;;;;;;15.98;100.00;99450.03;2082124;28;20437;-74
2022/06/17 04:51:40;;;;;;;76.55;57.20;;;;;;;15.96;100.00;99452.25;2089611;28;20280;-72
2022/06/17 04:52:48;;;;;;;84.70;58.97;;;;;;;16.00;100.00;99448.59;2082197;28;20719;-73
2022/06/17 04:53:57;;;;;;;86.55;59.00;;;;;;;16.01;100.00;99449.41;2089924;28;20243;-72
2022/06/17 04:55:34;;;;;;;73.78;55.72;;;;;;;15.98;100.00;99442.72;2090368;28;20673;-73
2022/06/17 04:57:04;;;;;;;75.97;57.10;;;;;;;15.98;100.00;99442.72;2078519;28;20599;-72
2022/06/17 04:58:19;;;;;;;76.60;56.50;;;;;;;15.92;100.00;99445.94;2089775;28;20564;-73
2022/06/17 04:59:31;;;;;;;72.68;55.80;;;;;;;15.92;100.00;99448.63;2081924;28;20200;-72